Terminal Aerodrome Forecast
Issued by NWS

Home | Current Version | Previous Version | Graphics & Text | Print | Product List | Glossary On
Versions: 1 2 3 4 5 6 7 8 9 10 11 12 13 14 15 16
000
FTUS43 KMPX 232300 RRA
TAFAXN
TAF
KAXN 232351Z 2400/2424 12015G22KT P6SM SCT010 OVC050
      TEMPO 2400/2403 BKN010
     FM240800 12010KT 6SM -RA BR SCT015 BKN020
     FM241200 15007KT 4SM -RA BR BKN015
      TEMPO 2414/2418 2SM -RA BR BKN008
     FM241800 33006KT 6SM -RA BR SCT010 BKN020
     FM242100 31006KT P6SM SCT020 BKN050=

USA.gov is the U.S. government's official web portal to all federal, state and local government web resources and services.